createdAt,value
2018-10-09T08:34:13.043Z,33.40
2018-10-09T08:35:15.276Z,36.00
2018-10-09T08:36:16.172Z,36.80
2018-10-09T08:39:13.389Z,34.60
2018-10-09T08:40:14.751Z,34.60
2018-10-09T08:41:25.736Z,32.80
2018-10-09T08:43:00.859Z,32.80
2018-10-09T08:44:49.418Z,30.80
2018-10-09T08:45:51.355Z,31.00
2018-10-09T08:46:52.231Z,31.70
2018-10-09T08:53:03.182Z,31.00
2018-10-09T08:54:43.734Z,31.00
2018-10-09T08:56:46.403Z,30.70
2018-10-09T08:57:47.220Z,31.00
2018-10-09T09:02:54.106Z,31.60
2018-10-09T09:11:12.138Z,30.50
2018-10-09T09:12:30.988Z,31.70
2018-10-09T09:15:33.830Z,30.80
2018-10-09T09:16:34.688Z,32.30
2018-10-09T09:18:53.200Z,32.00
2018-10-09T09:21:49.608Z,31.00
2018-10-09T09:26:24.696Z,30.20
2018-10-09T09:28:26.769Z,31.30
2018-10-09T09:31:17.245Z,31.30
2018-10-09T09:34:35.307Z,30.10
2018-10-09T09:37:23.257Z,29.40
2018-10-09T09:38:36.809Z,29.60
2018-10-09T09:39:37.644Z,29.40
2018-10-09T09:42:41.893Z,28.90
2018-10-09T09:44:02.732Z,28.90
2018-10-09T09:46:50.647Z,28.10
2018-10-09T09:50:16.334Z,27.90
2018-10-09T09:57:11.745Z,26.10
2018-10-09T10:00:06.382Z,26.50
2018-10-09T10:01:07.106Z,26.70
2018-10-09T10:02:36.052Z,27.20
2018-10-09T10:03:43.265Z,26.70
2018-10-09T10:12:14.952Z,24.90
2018-10-09T10:16:51.224Z,24.80
2018-10-09T10:17:52.905Z,25.00
2018-10-09T10:19:09.249Z,25.00
2018-10-09T10:23:48.369Z,23.10
2018-10-09T10:25:01.650Z,23.40
2018-10-09T10:26:39.246Z,24.60
2018-10-09T10:27:40.112Z,23.80
2018-10-09T10:29:42.596Z,23.30
2018-10-09T10:30:45.250Z,23.10
2018-10-09T10:31:50.887Z,22.70
2018-10-09T10:32:51.655Z,22.60
2018-10-09T10:33:53.398Z,21.30
2018-10-09T10:34:57.768Z,22.00
2018-10-09T10:37:56.594Z,21.40
2018-10-09T10:38:57.332Z,22.70
2018-10-09T10:40:00.928Z,21.90
2018-10-09T10:43:16.124Z,21.10
2018-10-09T10:44:28.332Z,20.80
2018-10-09T10:48:48.747Z,19.60
2018-10-09T10:50:03.776Z,20.10
2018-10-09T10:51:08.631Z,20.80
2018-10-09T10:52:17.774Z,20.60
2018-10-09T10:53:19.911Z,19.90
2018-10-09T10:54:20.654Z,19.00
2018-10-09T10:55:21.355Z,18.10
2018-10-09T10:56:22.987Z,18.10
2018-10-09T10:57:24.784Z,18.10
2018-10-09T10:58:26.397Z,18.30
2018-10-09T10:59:27.109Z,17.80
2018-10-09T11:00:29.420Z,17.10
2018-10-09T11:03:10.315Z,17.20
2018-10-09T11:04:42.570Z,15.20
2018-10-09T11:06:00.911Z,15.70
2018-10-09T11:07:04.720Z,15.60
2018-10-09T11:08:05.610Z,15.50
2018-10-09T11:09:21.512Z,15.80
2018-10-09T11:10:24.099Z,16.40
2018-10-09T11:15:31.365Z,16.50
2018-10-09T11:17:07.177Z,17.20
2018-10-09T11:18:32.487Z,16.80
2018-10-09T11:19:35.843Z,16.30
2018-10-09T11:20:39.134Z,16.70
2018-10-09T11:21:40.026Z,16.90
2018-10-09T11:22:40.706Z,15.40
2018-10-09T11:24:10.732Z,15.00
2018-10-09T11:25:11.857Z,15.00
2018-10-09T11:26:34.052Z,16.50
2018-10-09T11:32:18.069Z,15.70
2018-10-09T11:33:25.514Z,16.40
2018-10-09T11:36:20.421Z,15.30
2018-10-09T11:37:27.820Z,16.50
2018-10-09T11:40:44.718Z,15.30
2018-10-09T11:42:22.016Z,14.90
2018-10-09T11:43:33.234Z,14.50
2018-10-09T11:44:35.779Z,14.50
2018-10-09T11:45:36.525Z,15.30
2018-10-09T11:46:37.206Z,15.70
2018-10-09T11:50:01.140Z,15.10
2018-10-09T11:53:11.727Z,13.40
2018-10-09T11:54:44.302Z,12.90
2018-10-09T11:59:18.655Z,13.70
2018-10-09T12:00:20.656Z,13.70
2018-10-09T12:01:21.967Z,14.40
2018-10-09T12:02:44.212Z,14.30
2018-10-09T12:03:47.317Z,13.20
2018-10-09T12:04:59.465Z,13.60
2018-10-09T12:06:09.319Z,12.80
2018-10-09T12:07:10.641Z,12.60
2018-10-09T12:08:11.370Z,12.90
2018-10-09T12:09:48.078Z,13.20
2018-10-09T12:10:53.395Z,13.20
2018-10-09T12:11:55.419Z,14.70
2018-10-09T12:14:46.108Z,13.90
2018-10-09T12:15:47.033Z,13.90
2018-10-09T12:20:27.622Z,12.90
2018-10-09T12:21:29.752Z,12.90
2018-10-09T12:22:30.495Z,12.50
2018-10-09T12:23:53.477Z,11.90
2018-10-09T12:28:34.895Z,11.20
2018-10-09T12:29:35.594Z,11.50
2018-10-09T12:31:02.536Z,11.80
2018-10-09T12:32:03.299Z,11.90
2018-10-09T12:33:25.238Z,12.10
2018-10-09T12:34:33.455Z,11.60
2018-10-09T12:36:36.592Z,11.60
2018-10-09T12:37:46.090Z,11.80
2018-10-09T12:39:11.969Z,11.20
2018-10-09T12:40:48.959Z,11.70
2018-10-09T12:41:50.877Z,11.20
2018-10-09T12:46:47.660Z,11.60
2018-10-09T12:47:48.503Z,11.80
2018-10-09T12:48:51.235Z,11.30
2018-10-09T12:49:54.008Z,11.50
2018-10-09T12:50:59.653Z,11.40
2018-10-09T12:52:01.066Z,11.30
2018-10-09T12:53:03.635Z,11.50
2018-10-09T12:55:34.518Z,11.20
2018-10-09T12:58:11.912Z,11.20
2018-10-09T13:04:20.416Z,11.20
2018-10-09T13:05:22.881Z,11.10
2018-10-09T13:06:25.548Z,10.60
2018-10-09T13:07:40.060Z,10.80
2018-10-09T13:08:40.800Z,10.80
2018-10-09T13:09:42.688Z,12.00
2018-10-09T13:10:44.541Z,11.30
2018-10-09T13:12:00.022Z,11.60
2018-10-09T13:13:05.795Z,11.50
2018-10-09T13:18:10.126Z,10.40
2018-10-09T13:19:43.285Z,10.40
2018-10-09T13:20:44.139Z,11.00
2018-10-09T13:22:10.280Z,11.00
2018-10-09T13:23:42.713Z,10.70
2018-10-09T13:28:19.385Z,10.70
2018-10-09T13:29:20.702Z,10.70
2018-10-09T13:30:36.776Z,11.10
2018-10-09T13:31:41.299Z,10.60
2018-10-09T13:38:25.976Z,10.20
2018-10-09T13:39:27.687Z,10.80
2018-10-09T13:42:20.103Z,10.40
2018-10-09T13:45:15.999Z,11.40
2018-10-09T13:46:22.158Z,10.80
2018-10-09T13:47:23.150Z,11.00
2018-10-09T13:48:46.762Z,11.20
2018-10-09T13:50:10.010Z,11.20
2018-10-09T13:51:10.712Z,10.50
2018-10-09T13:52:11.360Z,10.40
2018-10-09T13:53:28.914Z,10.30
2018-10-09T13:55:10.857Z,10.80
2018-10-09T13:56:16.632Z,10.80
2018-10-09T13:59:18.820Z,10.40
2018-10-09T14:00:21.888Z,10.00
2018-10-09T14:03:10.102Z,9.60
2018-10-09T14:04:10.793Z,9.20
2018-10-09T14:07:12.995Z,9.20
2018-10-09T14:11:49.323Z,10.40
2018-10-09T14:13:20.186Z,11.40
2018-10-09T14:14:47.260Z,10.20
2018-10-09T14:15:48.101Z,9.50
2018-10-09T14:18:15.029Z,9.90
2018-10-09T14:19:21.563Z,9.60
2018-10-09T14:20:22.423Z,10.20
2018-10-09T14:24:59.223Z,9.70
2018-10-09T14:26:01.060Z,10.90
2018-10-09T14:27:04.384Z,10.10
2018-10-09T14:28:09.999Z,9.30
2018-10-09T14:29:14.219Z,9.90
2018-10-09T14:30:15.058Z,9.90
2018-10-09T14:31:19.507Z,9.00
2018-10-09T14:32:22.058Z,8.90
2018-10-09T14:35:38.930Z,9.80
2018-10-09T14:37:11.420Z,9.80
2018-10-09T14:39:16.640Z,9.40
2018-10-09T14:40:38.375Z,9.40
2018-10-09T14:42:11.022Z,9.10
2018-10-09T14:43:13.088Z,9.40
2018-10-09T14:47:11.670Z,8.80
2018-10-09T14:48:13.724Z,8.60
2018-10-09T14:51:07.643Z,8.90
2018-10-09T14:52:10.027Z,8.80
2018-10-09T14:55:01.333Z,8.70
2018-10-09T14:56:02.519Z,9.10
2018-10-09T14:57:03.532Z,9.00
2018-10-09T14:58:05.287Z,8.90
2018-10-09T14:59:07.213Z,9.10
2018-10-09T15:00:08.786Z,9.10
2018-10-09T15:01:09.611Z,9.00
2018-10-09T15:07:37.267Z,8.00
2018-10-09T15:08:52.163Z,8.20
2018-10-09T15:10:06.408Z,8.30
2018-10-09T15:11:37.329Z,7.80
2018-10-09T15:14:28.059Z,7.70
2018-10-09T15:15:31.142Z,7.70
2018-10-09T15:17:12.742Z,8.10
2018-10-09T15:20:14.781Z,8.10
2018-10-09T15:21:41.167Z,7.90
2018-10-09T15:22:41.969Z,8.20
2018-10-09T15:23:43.161Z,8.20
2018-10-09T15:24:44.221Z,7.90
2018-10-09T15:25:45.274Z,8.10
2018-10-09T15:28:41.105Z,7.80
2018-10-09T15:30:17.170Z,7.80
2018-10-09T15:31:29.714Z,7.80
2018-10-09T15:36:42.738Z,7.40
2018-10-09T15:39:30.532Z,7.70
2018-10-09T15:40:31.469Z,7.90
2018-10-09T15:43:21.466Z,7.60
2018-10-09T15:44:22.120Z,7.50
2018-10-09T15:47:10.207Z,7.70
2018-10-09T15:49:59.807Z,7.50
2018-10-09T15:51:00.659Z,7.10
2018-10-09T15:52:09.151Z,7.10
2018-10-09T15:53:09.848Z,7.30
2018-10-09T15:54:15.009Z,7.20
2018-10-09T15:55:43.796Z,7.10
2018-10-09T15:56:45.290Z,7.20
2018-10-09T15:59:38.673Z,8.20
2018-10-09T16:00:40.016Z,7.20
2018-10-09T16:01:40.715Z,7.70
2018-10-09T16:02:41.591Z,7.20
2018-10-09T16:03:45.548Z,7.70
2018-10-09T16:04:57.806Z,7.70
2018-10-09T16:11:11.928Z,7.80
2018-10-09T16:12:12.649Z,8.00
2018-10-09T16:13:16.602Z,8.30
2018-10-09T16:14:17.538Z,8.30
2018-10-09T16:17:40.542Z,8.70
2018-10-09T16:20:47.073Z,9.00
2018-10-09T16:21:50.763Z,9.00
2018-10-09T16:23:13.598Z,9.00
2018-10-09T16:25:45.698Z,9.50
2018-10-09T16:26:46.595Z,9.40
2018-10-09T16:27:48.898Z,10.60
2018-10-09T16:31:17.674Z,10.20
2018-10-09T16:32:31.736Z,9.80
2018-10-09T16:33:40.750Z,9.40
2018-10-09T16:35:06.429Z,11.70
2018-10-09T16:36:47.864Z,11.60
2018-10-09T16:39:37.573Z,10.40
2018-10-09T16:40:46.744Z,10.90
2018-10-09T16:41:47.483Z,11.30
2018-10-09T16:43:00.424Z,10.50
2018-10-09T16:44:08.423Z,9.90
2018-10-09T16:50:00.941Z,10.00
2018-10-09T16:51:09.858Z,10.40
2018-10-09T16:52:11.784Z,11.00
2018-10-09T16:55:01.767Z,11.70
2018-10-09T16:56:26.665Z,10.80
2018-10-09T16:59:44.078Z,11.50
2018-10-09T17:00:54.000Z,12.00
2018-10-09T17:02:19.870Z,12.10
2018-10-09T17:03:39.874Z,12.50
2018-10-09T17:05:33.783Z,11.80
2018-10-09T17:07:10.776Z,12.20
2018-10-09T17:08:19.049Z,12.20
2018-10-09T17:09:20.075Z,12.70
2018-10-09T17:10:21.768Z,12.40
2018-10-09T17:11:23.530Z,12.10
2018-10-09T17:12:24.355Z,12.90
2018-10-09T17:15:32.751Z,13.70
2018-10-09T17:18:26.837Z,14.30
2018-10-09T17:19:31.320Z,14.60
2018-10-09T17:20:52.791Z,15.80
2018-10-09T17:21:59.849Z,16.60
2018-10-09T17:23:01.307Z,16.20
2018-10-09T17:24:03.073Z,16.20
2018-10-09T17:27:14.574Z,15.90
2018-10-09T17:28:18.438Z,16.30
2018-10-09T17:30:01.590Z,16.30
2018-10-09T17:31:02.741Z,16.30
